Time;durP1;ratioP1;P1;durP2;ratioP2;P2;SDS_P1;SDS_P2;PMS_P1;PMS_P2;Temp;Humidity;BMP_temperature;BMP_pressure;BME280_temperature;BME280_humidity;BME280_pressure;Samples;Min_cycle;Max_cycle;Signal;HPM_P1;HPM_P2
2022/11/13 00:01:55;;;;;;;;;;;;;;;4.48;100.00;97448.41;5063110;28;19972;-72
2022/11/13 00:04:21;;;;;;;;;;;;;;;4.41;100.00;97456.97;5059258;28;19997;-72
2022/11/13 00:06:47;;;;;;;;;;;;;;;4.39;100.00;97451.09;5058747;28;19959;-73
2022/11/13 00:09:13;;;;;;;;;;;;;;;4.33;100.00;97452.56;5045954;28;20019;-72
2022/11/13 00:11:39;;;;;;;;;;;;;;;4.26;100.00;97452.38;5064164;28;20312;-72
2022/11/13 00:14:04;;;;;;;;;;;;;;;4.21;100.00;97459.78;5068563;28;19997;-73
2022/11/13 00:16:30;;;;;;;;;;;;;;;4.21;100.00;97451.19;5059495;28;20463;-72
2022/11/13 00:18:56;;;;;;;;;;;;;;;4.22;100.00;97445.00;5062924;28;20336;-73
2022/11/13 00:21:23;;;;;;;;;;;;;;;4.23;100.00;97444.06;5065119;28;19958;-72
2022/11/13 00:23:50;;;;;;;;;;;;;;;4.24;100.00;97446.50;5064626;28;19949;-72
2022/11/13 00:26:17;;;;;;;;;;;;;;;4.25;100.00;97447.31;5063598;28;19950;-72
2022/11/13 00:28:44;;;;;;;;;;;;;;;4.25;100.00;97442.13;5061006;28;19945;-73
2022/11/13 00:31:12;;;;;;;;;;;;;;;4.20;100.00;97444.34;5064850;28;19963;-72
2022/11/13 00:33:38;;;;;;;;;;;;;;;4.11;100.00;97438.28;5062367;28;19952;-73
2022/11/13 00:36:05;;;;;;;;;;;;;;;4.06;100.00;97435.34;5062385;28;19997;-72
2022/11/13 00:38:31;;;;;;;;;;;;;;;4.07;100.00;97431.78;5065219;28;20420;-73
2022/11/13 00:40:57;;;;;;;;;;;;;;;4.09;100.00;97431.63;5068758;28;19970;-72
2022/11/13 00:43:22;;;;;;;;;;;;;;;4.12;100.00;97433.94;5060778;28;19958;-73
2022/11/13 00:45:48;;;;;;;;;;;;;;;4.14;100.00;97432.81;5068405;28;20425;-73
2022/11/13 00:48:14;;;;;;;;;;;;;;;4.14;100.00;97426.81;5070660;28;20361;-73
2022/11/13 00:50:40;;;;;;;;;;;;;;;4.16;100.00;97428.28;5066687;28;20028;-72
2022/11/13 00:53:06;;;;;;;;;;;;;;;4.14;100.00;97413.84;5062329;28;20003;-73
2022/11/13 00:55:32;;;;;;;;;;;;;;;4.11;100.00;97411.53;5069369;28;19961;-73
2022/11/13 00:57:58;;;;;;;;;;;;;;;4.08;100.00;97415.25;5067244;28;20036;-73
2022/11/13 01:00:24;;;;;;;;;;;;;;;4.05;100.00;97410.34;5067757;28;19964;-73
2022/11/13 01:02:50;;;;;;;;;;;;;;;4.03;100.00;97414.88;5060992;28;19956;-73
2022/11/13 01:05:16;;;;;;;;;;;;;;;4.04;100.00;97406.13;5068680;28;19956;-73
2022/11/13 01:07:42;;;;;;;;;;;;;;;4.06;100.00;97404.19;5067342;28;20413;-73
2022/11/13 01:10:08;;;;;;;;;;;;;;;4.08;100.00;97404.88;5068873;28;19978;-73
2022/11/13 01:12:33;;;;;;;;;;;;;;;4.09;100.00;97411.66;5063695;28;19954;-73
2022/11/13 01:14:59;;;;;;;;;;;;;;;4.06;100.00;97404.19;5062831;28;20021;-73
2022/11/13 01:17:25;;;;;;;;;;;;;;;4.05;100.00;97399.97;5069971;28;19950;-73
2022/11/13 01:19:51;;;;;;;;;;;;;;;4.02;100.00;97395.91;5072096;28;19982;-73
2022/11/13 01:22:17;;;;;;;;;;;;;;;4.00;100.00;97384.03;5063997;28;19956;-73
2022/11/13 01:24:43;;;;;;;;;;;;;;;4.00;100.00;97387.44;5065286;28;20031;-73
2022/11/13 01:27:09;;;;;;;;;;;;;;;4.00;100.00;97373.66;5065249;28;19951;-73
2022/11/13 01:29:36;;;;;;;;;;;;;;;3.99;100.00;97375.44;5069244;28;19969;-73
2022/11/13 01:32:02;;;;;;;;;;;;;;;4.01;100.00;97377.88;5071394;28;19960;-73
2022/11/13 01:34:28;;;;;;;;;;;;;;;3.97;100.00;97361.81;5067289;28;20014;-73
2022/11/13 01:36:54;;;;;;;;;;;;;;;3.94;100.00;97364.69;5065178;28;20004;-73
2022/11/13 01:39:20;;;;;;;;;;;;;;;3.93;100.00;97360.50;5065019;28;19963;-73
2022/11/13 01:41:46;;;;;;;;;;;;;;;3.92;100.00;97368.41;5069563;28;19950;-73
2022/11/13 01:44:12;;;;;;;;;;;;;;;3.77;100.00;97360.38;5070486;28;20009;-73
2022/11/13 01:46:43;;;;;;;;;;;;;;;3.66;100.00;97351.88;5063630;28;19949;-73
2022/11/13 01:49:09;;;;;;;;;;;;;;;3.58;100.00;97363.97;5058818;28;20321;-73
2022/11/13 01:51:38;;;;;;;;;;;;;;;3.55;100.00;97356.47;5068160;28;19942;-73
2022/11/13 01:54:08;;;;;;;;;;;;;;;3.54;100.00;97357.47;5071006;28;19947;-73
2022/11/13 01:56:34;;;;;;;;;;;;;;;3.44;100.00;97357.53;5049013;28;19953;-73
2022/11/13 01:59:05;;;;;;;;;;;;;;;3.42;100.00;97360.31;5065907;28;20004;-73
2022/11/13 02:01:31;;;;;;;;;;;;;;;3.39;100.00;97352.81;5065387;28;19954;-73
2022/11/13 02:03:57;;;;;;;;;;;;;;;3.39;100.00;97342.44;5064263;28;19947;-73
2022/11/13 02:06:24;;;;;;;;;;;;;;;3.40;100.00;97341.50;5064811;28;20365;-73
2022/11/13 02:08:50;;;;;;;;;;;;;;;3.44;100.00;97335.03;5067107;28;19987;-75
2022/11/13 02:11:17;;;;;;;;;;;;;;;3.52;100.00;97339.44;5059088;28;19971;-73
2022/11/13 02:13:43;;;;;;;;;;;;;;;3.55;100.00;97340.94;5047945;28;20345;-73
2022/11/13 02:16:09;;;;;;;;;;;;;;;3.57;100.00;97333.81;5063051;28;19967;-73
2022/11/13 02:18:36;;;;;;;;;;;;;;;3.58;100.00;97323.28;5064062;28;19966;-73
2022/11/13 02:21:08;;;;;;;;;;;;;;;3.61;100.00;97322.16;5051196;28;20354;-73
2022/11/13 02:23:57;;;;;;;;;;;;;;;3.63;100.00;97320.22;5062688;28;19956;-73
2022/11/13 02:26:25;;;;;;;;;;;;;;;3.66;100.00;97318.16;5065572;28;20323;-73
2022/11/13 02:28:51;;;;;;;;;;;;;;;3.68;100.00;97315.41;5065053;28;19958;-73
2022/11/13 02:31:17;;;;;;;;;;;;;;;3.68;100.00;97312.03;5060962;28;19969;-73
2022/11/13 02:33:42;;;;;;;;;;;;;;;3.68;100.00;97304.25;5066733;28;19945;-73
2022/11/13 02:36:09;;;;;;;;;;;;;;;3.67;100.00;97303.41;5071058;28;20408;-74
2022/11/13 02:38:36;;;;;;;;;;;;;;;3.68;100.00;97294.66;5065973;28;19983;-73
2022/11/13 02:41:02;;;;;;;;;;;;;;;3.69;100.00;97303.25;5063730;28;20044;-73
2022/11/13 02:43:28;;;;;;;;;;;;;;;3.59;100.00;97299.00;5063659;28;19957;-73
2022/11/13 02:45:54;;;;;;;;;;;;;;;3.49;100.00;97297.47;5069024;28;19953;-73
2022/11/13 02:48:20;;;;;;;;;;;;;;;3.34;100.00;97297.19;5064156;28;19955;-73
2022/11/13 02:50:46;;;;;;;;;;;;;;;3.31;100.00;97287.94;5063471;28;19967;-73
2022/11/13 02:53:12;;;;;;;;;;;;;;;3.21;100.00;97290.63;5059128;28;19959;-73
2022/11/13 02:55:38;;;;;;;;;;;;;;;3.10;100.00;97283.06;5063943;28;19954;-73
2022/11/13 02:58:03;;;;;;;;;;;;;;;3.05;100.00;97293.09;5067916;28;20373;-73
2022/11/13 03:00:29;;;;;;;;;;;;;;;3.07;100.00;97280.78;5064935;28;19989;-73
2022/11/13 03:02:55;;;;;;;;;;;;;;;3.11;100.00;97282.13;5062499;28;19987;-73
2022/11/13 03:05:21;;;;;;;;;;;;;;;3.16;100.00;97268.72;5060964;28;19959;-73
2022/11/13 03:07:47;;;;;;;;;;;;;;;3.19;100.00;97271.00;5066622;28;20043;-73
2022/11/13 03:10:13;;;;;;;;;;;;;;;3.21;100.00;97269.06;5065514;28;20020;-73
2022/11/13 03:12:39;;;;;;;;;;;;;;;3.23;100.00;97270.56;5057864;28;20434;-73
2022/11/13 03:15:06;;;;;;;;;;;;;;;3.25;100.00;97262.59;5064430;28;19954;-72
2022/11/13 03:17:32;;;;;;;;;;;;;;;3.24;100.00;97261.81;5068149;28;20331;-73
2022/11/13 03:19:59;;;;;;;;;;;;;;;3.24;100.00;97256.63;5039715;28;19952;-73
2022/11/13 03:22:25;;;;;;;;;;;;;;;3.23;100.00;97249.81;5064243;28;19959;-73
2022/11/13 03:24:51;;;;;;;;;;;;;;;3.23;100.00;97251.56;5064830;28;19959;-73
2022/11/13 03:27:17;;;;;;;;;;;;;;;3.20;100.00;97251.91;5068923;28;20368;-73
2022/11/13 03:29:42;;;;;;;;;;;;;;;3.15;100.00;97246.34;5062602;28;19959;-73
2022/11/13 03:32:08;;;;;;;;;;;;;;;3.12;100.00;97255.22;5069623;28;19959;-73
2022/11/13 03:34:34;;;;;;;;;;;;;;;3.11;100.00;97247.59;5060449;28;19956;-73
2022/11/13 03:37:00;;;;;;;;;;;;;;;3.08;100.00;97245.31;5063760;28;19957;-73
2022/11/13 03:39:26;;;;;;;;;;;;;;;3.05;100.00;97247.25;5062850;28;19962;-72
2022/11/13 03:41:52;;;;;;;;;;;;;;;3.02;100.00;97244.13;5066138;28;20326;-73
2022/11/13 03:44:18;;;;;;;;;;;;;;;2.99;100.00;97239.28;5058744;28;19955;-73
2022/11/13 03:46:43;;;;;;;;;;;;;;;2.94;100.00;97244.91;5063421;28;19957;-73
2022/11/13 03:49:09;;;;;;;;;;;;;;;2.91;100.00;97249.56;5064498;28;20048;-73
2022/11/13 03:51:35;;;;;;;;;;;;;;;2.88;100.00;97248.09;5062521;28;19978;-72
2022/11/13 03:54:01;;;;;;;;;;;;;;;2.87;100.00;97253.41;5061343;28;20442;-73
2022/11/13 03:56:27;;;;;;;;;;;;;;;2.83;100.00;97258.06;5062068;28;20048;-73
2022/11/13 03:58:53;;;;;;;;;;;;;;;2.81;100.00;97249.63;5067342;28;20309;-73
2022/11/13 04:01:19;;;;;;;;;;;;;;;2.79;100.00;97255.00;5058611;28;20411;-73
2022/11/13 04:03:45;;;;;;;;;;;;;;;2.75;100.00;97248.47;5062524;28;19957;-72
2022/11/13 04:06:10;;;;;;;;;;;;;;;2.73;100.00;97250.41;5061894;28;19959;-73
2022/11/13 04:08:36;;;;;;;;;;;;;;;2.69;100.00;97248.22;5000195;28;1788642;-72
2022/11/13 04:11:09;;;;;;;;;;;;;;;2.64;100.00;97246.09;5070048;28;19983;-73
2022/11/13 04:13:35;;;;;;;;;;;;;;;2.51;100.00;97243.88;5064620;28;19956;-72
2022/11/13 04:16:01;;;;;;;;;;;;;;;2.42;100.00;97242.97;5057008;28;19963;-73
2022/11/13 04:18:27;;;;;;;;;;;;;;;2.39;100.00;97243.28;5062451;28;19954;-72
2022/11/13 04:21:00;;;;;;;;;;;;;;;2.39;100.00;97237.28;5062955;28;19959;-72
2022/11/13 04:23:25;;;;;;;;;;;;;;;2.38;100.00;97244.22;5068626;28;19959;-73
2022/11/13 04:25:51;;;;;;;;;;;;;;;2.37;100.00;97237.44;5057781;28;20413;-72
2022/11/13 04:28:17;;;;;;;;;;;;;;;2.36;100.00;97229.81;5064054;28;20475;-72
2022/11/13 04:30:43;;;;;;;;;;;;;;;2.34;100.00;97229.16;5062722;28;20335;-72
2022/11/13 04:33:09;;;;;;;;;;;;;;;2.32;100.00;97216.34;5062592;28;19961;-72
2022/11/13 04:35:35;;;;;;;;;;;;;;;2.31;100.00;97208.72;5065990;28;19956;-72
2022/11/13 04:38:01;;;;;;;;;;;;;;;2.27;100.00;97204.78;5066988;28;19956;-72
2022/11/13 04:40:26;;;;;;;;;;;;;;;2.19;100.00;97201.19;5056844;28;19970;-72
2022/11/13 04:42:52;;;;;;;;;;;;;;;2.12;100.00;97194.97;5048892;28;20004;-72
2022/11/13 04:45:19;;;;;;;;;;;;;;;2.09;100.00;97200.41;5066909;28;20054;-72
2022/11/13 04:47:45;;;;;;;;;;;;;;;2.09;100.00;97197.03;5045039;28;19957;-72
2022/11/13 04:50:11;;;;;;;;;;;;;;;2.07;100.00;97193.78;5062413;28;20017;-71
2022/11/13 04:52:37;;;;;;;;;;;;;;;2.04;100.00;97197.47;5055839;28;19963;-72
2022/11/13 04:55:04;;;;;;;;;;;;;;;1.99;100.00;97195.28;5063767;28;19988;-71
2022/11/13 04:57:31;;;;;;;;;;;;;;;1.98;100.00;97198.84;5066401;28;20323;-72
2022/11/13 04:59:57;;;;;;;;;;;;;;;1.96;100.00;97189.63;5064355;28;19948;-71
2022/11/13 05:02:23;;;;;;;;;;;;;;;1.94;100.00;97192.34;5063101;28;19959;-71
2022/11/13 05:04:49;;;;;;;;;;;;;;;1.91;100.00;97192.66;5064377;28;20388;-71
2022/11/13 05:07:15;;;;;;;;;;;;;;;1.89;100.00;97191.13;5058043;28;19957;-71
2022/11/13 05:09:40;;;;;;;;;;;;;;;1.87;100.00;97190.47;5063469;28;20462;-71
2022/11/13 05:12:07;;;;;;;;;;;;;;;1.86;100.00;97188.84;5064964;28;20056;-71
2022/11/13 05:14:37;;;;;;;;;;;;;;;1.84;100.00;97186.41;5062739;28;19955;-71
2022/11/13 05:17:03;;;;;;;;;;;;;;;1.82;100.00;97191.72;5061761;28;19960;-71
2022/11/13 05:19:31;;;;;;;;;;;;;;;1.83;100.00;97192.53;5059714;28;19962;-71
2022/11/13 05:21:57;;;;;;;;;;;;;;;1.84;100.00;97191.56;5061549;28;19956;-71
2022/11/13 05:24:22;;;;;;;;;;;;;;;1.83;100.00;97192.53;5068423;28;19959;-71
2022/11/13 05:26:49;;;;;;;;;;;;;;;1.83;100.00;97190.78;5069236;28;19976;-71
2022/11/13 05:29:15;;;;;;;;;;;;;;;1.81;100.00;97189.28;5062411;28;19964;-71
2022/11/13 05:31:40;;;;;;;;;;;;;;;1.80;100.00;97191.03;5065064;28;20453;-70
2022/11/13 05:34:06;;;;;;;;;;;;;;;1.81;100.00;97187.50;5059791;28;20041;-71
2022/11/13 05:36:32;;;;;;;;;;;;;;;1.80;100.00;97172.94;5065375;28;19966;-71
2022/11/13 05:38:58;;;;;;;;;;;;;;;1.77;100.00;97175.81;5067736;28;19961;-71
2022/11/13 05:41:25;;;;;;;;;;;;;;;1.75;100.00;97171.75;5067189;28;19965;-71
2022/11/13 05:43:51;;;;;;;;;;;;;;;1.74;100.00;97170.97;5068190;28;19957;-72
2022/11/13 05:46:18;;;;;;;;;;;;;;;1.73;100.00;97173.69;5063319;28;19959;-72
2022/11/13 05:48:44;;;;;;;;;;;;;;;1.72;100.00;97172.03;5063231;28;20399;-71
2022/11/13 05:51:10;;;;;;;;;;;;;;;1.70;100.00;97164.44;5071316;28;19976;-71
2022/11/13 05:53:36;;;;;;;;;;;;;;;1.68;100.00;97156.00;5066708;28;19957;-71
2022/11/13 05:56:04;;;;;;;;;;;;;;;1.62;100.00;97157.41;5064387;28;19956;-71
2022/11/13 05:58:29;;;;;;;;;;;;;;;1.59;100.00;97149.91;5062546;28;19959;-71
2022/11/13 06:01:05;;;;;;;;;;;;;;;1.56;100.00;97147.63;5070326;28;19950;-71
2022/11/13 06:03:32;;;;;;;;;;;;;;;1.55;100.00;97142.59;5066384;28;20322;-71
2022/11/13 06:05:58;;;;;;;;;;;;;;;1.53;100.00;97139.34;5059137;28;19950;-71
2022/11/13 06:08:24;;;;;;;;;;;;;;;1.51;100.00;97139.50;5068588;28;19980;-71
2022/11/13 06:10:50;;;;;;;;;;;;;;;1.49;100.00;97138.84;5065667;28;19978;-71
2022/11/13 06:13:16;;;;;;;;;;;;;;;1.45;100.00;97144.41;5062149;28;19949;-71
2022/11/13 06:15:42;;;;;;;;;;;;;;;1.44;100.00;97150.56;5064439;28;20009;-71
2022/11/13 06:18:08;;;;;;;;;;;;;;;1.38;100.00;97139.81;5060889;28;19953;-71
2022/11/13 06:20:34;;;;;;;;;;;;;;;1.33;100.00;97146.38;5066742;28;19950;-71
2022/11/13 06:23:00;;;;;;;;;;;;;;;1.31;100.00;97148.28;5066160;28;19961;-71
2022/11/13 06:25:27;;;;;;;;;;;;;;;1.31;100.00;97145.72;5067543;28;19956;-71
2022/11/13 06:27:53;;;;;;;;;;;;;;;1.30;100.00;97147.47;5064351;28;19955;-71
2022/11/13 06:30:19;;;;;;;;;;;;;;;1.27;100.00;97137.41;5060349;28;19954;-71
2022/11/13 06:32:50;;;;;;;;;;;;;;;1.25;100.00;97136.75;5071895;28;20014;-71
2022/11/13 06:35:16;;;;;;;;;;;;;;;1.22;100.00;97137.03;5062881;28;19973;-71
2022/11/13 06:37:42;;;;;;;;;;;;;;;1.19;100.00;97142.47;5066439;28;20060;-71
2022/11/13 06:40:08;;;;;;;;;;;;;;;1.15;100.00;97144.53;5059346;28;19958;-71
2022/11/13 06:42:34;;;;;;;;;;;;;;;1.15;100.00;97139.34;5064226;28;19963;-71
2022/11/13 06:45:00;;;;;;;;;;;;;;;1.16;100.00;97140.19;5069264;28;20326;-72
2022/11/13 06:47:27;;;;;;;;;;;;;;;1.19;100.00;97137.31;5065872;28;19960;-72
2022/11/13 06:49:52;;;;;;;;;;;;;;;1.23;100.00;97127.50;5064622;28;20338;-71
2022/11/13 06:52:18;;;;;;;;;;;;;;;1.28;100.00;97138.22;5040951;28;20100;-71
2022/11/13 06:54:44;;;;;;;;;;;;;;;1.31;100.00;97122.44;5068919;28;19960;-71
2022/11/13 06:57:10;;;;;;;;;;;;;;;1.30;100.00;97119.06;5065260;28;19962;-71
2022/11/13 06:59:36;;;;;;;;;;;;;;;1.32;100.00;97124.88;5062341;28;20399;-71
2022/11/13 07:02:02;;;;;;;;;;;;;;;1.30;100.00;97126.81;5062001;28;19962;-71
2022/11/13 07:04:28;;;;;;;;;;;;;;;1.27;100.00;97129.66;5066061;28;19963;-71
2022/11/13 07:06:54;;;;;;;;;;;;;;;1.24;100.00;97129.13;5068593;28;19965;-71
2022/11/13 07:09:20;;;;;;;;;;;;;;;1.25;100.00;97128.19;5065064;28;19977;-71
2022/11/13 07:11:46;;;;;;;;;;;;;;;1.15;100.00;97125.63;5057634;28;20021;-71
2022/11/13 07:14:12;;;;;;;;;;;;;;;1.08;100.00;97127.16;5069715;28;20058;-71
2022/11/13 07:16:38;;;;;;;;;;;;;;;0.98;100.00;97117.66;5066115;28;19959;-71
2022/11/13 07:19:04;;;;;;;;;;;;;;;0.94;100.00;97125.84;5062780;28;20046;-71
2022/11/13 07:21:30;;;;;;;;;;;;;;;0.95;100.00;97115.38;5062284;28;19949;-71
2022/11/13 07:23:56;;;;;;;;;;;;;;;0.97;100.00;97116.03;5066906;28;19953;-71
2022/11/13 07:26:22;;;;;;;;;;;;;;;1.04;100.00;97116.28;5064249;28;19959;-71
2022/11/13 07:28:48;;;;;;;;;;;;;;;1.09;100.00;97124.44;5059792;28;19954;-72
2022/11/13 07:31:15;;;;;;;;;;;;;;;1.14;100.00;97118.84;5063022;28;19968;-71
2022/11/13 07:33:41;;;;;;;;;;;;;;;1.17;100.00;97111.59;5066503;28;21186;-71
2022/11/13 07:36:08;;;;;;;;;;;;;;;1.19;100.00;97112.28;5060736;28;19966;-71
2022/11/13 07:38:34;;;;;;;;;;;;;;;1.24;100.00;97116.22;5060189;28;19955;-71
2022/11/13 07:40:59;;;;;;;;;;;;;;;1.30;100.00;97100.97;5064173;28;20046;-71
2022/11/13 07:43:26;;;;;;;;;;;;;;;1.35;100.00;97105.72;5066788;28;19962;-71
2022/11/13 07:45:54;;;;;;;;;;;;;;;1.37;100.00;97089.09;5063377;28;19950;-71
2022/11/13 07:48:21;;;;;;;;;;;;;;;1.38;100.00;97088.13;5065858;28;19964;-71
2022/11/13 07:50:47;;;;;;;;;;;;;;;1.41;100.00;97082.69;5068246;28;20414;-71
2022/11/13 07:53:13;;;;;;;;;;;;;;;1.47;100.00;97083.06;5063797;28;19980;-71
2022/11/13 07:55:39;;;;;;;;;;;;;;;1.49;100.00;97088.88;5061288;28;20349;-71
2022/11/13 07:58:05;;;;;;;;;;;;;;;1.51;100.00;97085.22;5063375;28;19970;-73
2022/11/13 08:00:32;;;;;;;;;;;;;;;1.57;100.00;97088.97;5050323;28;19954;-74
2022/11/13 08:02:58;;;;;;;;;;;;;;;1.57;100.00;97087.19;5062632;28;19965;-72
2022/11/13 08:05:24;;;;;;;;;;;;;;;1.56;100.00;97090.75;5063880;28;20415;-74
2022/11/13 08:07:51;;;;;;;;;;;;;;;1.58;100.00;97099.19;5059636;28;19981;-72
2022/11/13 08:10:17;;;;;;;;;;;;;;;1.60;100.00;97093.88;5064518;28;21501;-74
2022/11/13 08:12:44;;;;;;;;;;;;;;;1.58;100.00;97098.38;5062714;28;19979;-74
2022/11/13 08:15:10;;;;;;;;;;;;;;;1.56;100.00;97093.34;5064299;28;19956;-74
2022/11/13 08:17:36;;;;;;;;;;;;;;;1.57;100.00;97088.97;5067850;28;19947;-74
2022/11/13 08:20:02;;;;;;;;;;;;;;;1.65;100.00;97083.91;5062621;28;19945;-73
2022/11/13 08:22:29;;;;;;;;;;;;;;;1.72;100.00;97072.03;5056220;28;19950;-74
2022/11/13 08:24:54;;;;;;;;;;;;;;;1.82;100.00;97062.41;5066832;28;19956;-72
2022/11/13 08:27:21;;;;;;;;;;;;;;;1.97;100.00;97057.53;5065211;28;20028;-73
2022/11/13 08:29:48;;;;;;;;;;;;;;;2.12;100.00;97060.44;5059328;28;19967;-74
2022/11/13 08:32:14;;;;;;;;;;;;;;;2.22;100.00;97050.78;5060441;28;19966;-74
2022/11/13 08:34:40;;;;;;;;;;;;;;;2.32;100.00;97053.28;5063830;28;19957;-73
2022/11/13 08:37:06;;;;;;;;;;;;;;;2.43;100.00;97054.81;5062563;28;20050;-74
2022/11/13 08:39:34;;;;;;;;;;;;;;;2.43;100.00;97049.63;5067169;28;19995;-73
2022/11/13 08:42:00;;;;;;;;;;;;;;;2.41;100.00;97047.19;5061561;28;19950;-73
2022/11/13 08:44:26;;;;;;;;;;;;;;;2.44;100.00;97046.09;5058590;28;20443;-74
2022/11/13 08:46:52;;;;;;;;;;;;;;;2.53;100.00;97042.59;5044809;28;19964;-74
2022/11/13 08:49:18;;;;;;;;;;;;;;;2.60;100.00;97043.63;5065397;28;20019;-73
2022/11/13 08:51:44;;;;;;;;;;;;;;;2.69;100.00;97041.03;5067276;28;19976;-73
2022/11/13 08:54:10;;;;;;;;;;;;;;;2.69;100.00;97041.88;5058495;28;19951;-73
2022/11/13 08:56:36;;;;;;;;;;;;;;;2.65;100.00;97043.16;5062578;28;20008;-73
2022/11/13 08:59:02;;;;;;;;;;;;;;;2.59;100.00;97046.34;5070393;28;20005;-74
2022/11/13 09:01:27;;;;;;;;;;;;;;;2.60;100.00;97040.19;5069748;28;19964;-75
2022/11/13 09:03:53;;;;;;;;;;;;;;;2.66;100.00;97031.81;5067036;28;19957;-74
2022/11/13 09:06:19;;;;;;;;;;;;;;;2.76;100.00;97034.31;5045300;28;20053;-74
2022/11/13 09:08:45;;;;;;;;;;;;;;;2.91;100.00;97031.94;5054156;28;19976;-73
2022/11/13 09:11:11;;;;;;;;;;;;;;;3.05;100.00;97023.59;5066620;28;20419;-74
2022/11/13 09:13:37;;;;;;;;;;;;;;;3.20;100.00;97024.63;5063158;28;19996;-74
2022/11/13 09:16:03;;;;;;;;;;;;;;;3.33;100.00;97037.13;5068152;28;20020;-73
2022/11/13 09:18:29;;;;;;;;;;;;;;;3.43;100.00;97026.63;5069539;28;19955;-74
2022/11/13 09:20:59;;;;;;;;;;;;;;;3.54;100.00;97023.72;5065587;28;19998;-73
2022/11/13 09:23:25;;;;;;;;;;;;;;;3.66;100.00;97029.44;5067075;28;19955;-73
2022/11/13 09:25:51;;;;;;;;;;;;;;;3.75;100.00;97040.63;5058935;28;19958;-74
2022/11/13 09:28:17;;;;;;;;;;;;;;;3.84;100.00;97029.28;5062966;28;19964;-74
2022/11/13 09:30:43;;;;;;;;;;;;;;;3.88;100.00;97037.56;5072884;28;19960;-74
2022/11/13 09:33:09;;;;;;;;;;;;;;;4.01;100.00;97037.88;5065936;28;19974;-74
2022/11/13 09:35:35;;;;;;;;;;;;;;;4.17;100.00;97032.69;5066336;28;19957;-73
2022/11/13 09:38:14;;;;;;;;;;;;;;;4.34;100.00;97023.13;5063765;28;19954;-73
2022/11/13 09:40:42;;;;;;;;;;;;;;;4.50;100.00;97011.09;5055126;28;19959;-73
2022/11/13 09:43:21;;;;;;;;;;;;;;;4.70;100.00;97016.72;5042267;28;19964;-73
2022/11/13 09:45:48;;;;;;;;;;;;;;;4.90;100.00;97009.38;5067611;28;19953;-73
2022/11/13 09:48:29;;;;;;;;;;;;;;;5.01;100.00;97003.78;5069044;28;19966;-72
2022/11/13 09:50:55;;;;;;;;;;;;;;;4.94;100.00;97006.25;5062343;28;19953;-73
2022/11/13 09:53:21;;;;;;;;;;;;;;;4.94;100.00;97008.84;5064865;28;19961;-73
2022/11/13 09:55:55;;;;;;;;;;;;;;;4.92;100.00;97008.22;5066242;28;19957;-73
2022/11/13 09:58:39;;;;;;;;;;;;;;;4.95;100.00;97012.25;5070041;28;19949;-73
2022/11/13 10:01:13;;;;;;;;;;;;;;;4.97;100.00;97023.28;5067225;28;19949;-73
2022/11/13 10:03:44;;;;;;;;;;;;;;;5.06;100.00;97023.13;5062886;28;19959;-74
2022/11/13 10:06:13;;;;;;;;;;;;;;;5.15;100.00;97021.28;5065309;28;19966;-73
2022/11/13 10:08:45;;;;;;;;;;;;;;;5.17;100.00;97010.72;5063061;28;19983;-73
2022/11/13 10:11:13;;;;;;;;;;;;;;;5.05;100.00;97010.28;5065213;28;19956;-73
2022/11/13 10:13:44;;;;;;;;;;;;;;;4.99;100.00;97027.34;5064136;28;20018;-73
2022/11/13 10:16:26;;;;;;;;;;;;;;;4.95;100.00;97026.06;5063882;28;19959;-73
2022/11/13 10:18:54;;;;;;;;;;;;;;;4.85;100.00;97020.25;5063483;28;19946;-73
2022/11/13 10:21:23;;;;;;;;;;;;;;;4.83;100.00;97020.44;5067766;28;19952;-73
2022/11/13 10:23:53;;;;;;;;;;;;;;;4.88;100.00;97018.13;5065778;28;19966;-73
2022/11/13 10:26:20;;;;;;;;;;;;;;;4.90;100.00;97006.78;5067612;28;19958;-73
2022/11/13 10:28:52;;;;;;;;;;;;;;;4.95;100.00;97007.88;5066568;28;19981;-74
2022/11/13 10:31:18;;;;;;;;;;;;;;;5.03;100.00;97001.84;5064981;28;19951;-74
2022/11/13 10:33:44;;;;;;;;;;;;;;;5.14;100.00;96996.25;5060923;28;20368;-73
2022/11/13 10:36:33;;;;;;;;;;;;;;;5.37;100.00;96998.91;5066407;28;19968;-73
2022/11/13 10:39:04;;;;;;;;;;;;;;;5.61;100.00;96994.56;5039550;28;20302;-73
2022/11/13 10:41:30;;;;;;;;;;;;;;;5.72;100.00;96995.94;5069612;28;19976;-74
2022/11/13 10:44:01;;;;;;;;;;;;;;;5.78;100.00;97001.25;5070761;28;19957;-74
2022/11/13 10:46:31;;;;;;;;;;;;;;;5.79;100.00;96987.25;5056935;28;19959;-73
2022/11/13 10:49:08;;;;;;;;;;;;;;;5.82;100.00;96986.91;5060506;28;19949;-72
2022/11/13 10:51:35;;;;;;;;;;;;;;;5.95;100.00;96978.53;5064602;28;20421;-72
2022/11/13 10:54:18;;;;;;;;;;;;;;;6.13;100.00;96973.00;5064354;28;19953;-73
2022/11/13 10:56:44;;;;;;;;;;;;;;;6.34;100.00;96961.09;5069684;28;19949;-73
2022/11/13 10:59:17;;;;;;;;;;;;;;;6.47;100.00;96956.91;5055187;28;19955;-73
2022/11/13 11:01:44;;;;;;;;;;;;;;;6.66;100.00;96942.53;5046231;28;20335;-73
2022/11/13 11:04:19;;;;;;;;;;;;;;;6.74;99.20;96912.13;5067752;28;19968;-73
2022/11/13 11:06:45;;;;;;;;;;;;;;;6.81;100.00;96921.66;5067501;28;19956;-73
2022/11/13 11:09:42;;;;;;;;;;;;;;;6.83;98.79;96905.84;5062808;28;20453;-73
2022/11/13 11:12:17;;;;;;;;;;;;;;;6.94;100.00;96904.56;5038243;28;20468;-73
2022/11/13 11:14:55;;;;;;;;;;;;;;;7.13;99.79;96900.53;5041811;28;19950;-73
2022/11/13 11:17:27;;;;;;;;;;;;;;;7.23;99.06;96896.66;5064349;28;19958;-73
2022/11/13 11:20:16;;;;;;;;;;;;;;;7.32;99.54;96892.09;5056065;28;19954;-73
2022/11/13 11:22:43;;;;;;;;;;;;;;;7.50;99.91;96892.50;5054298;28;19974;-73
2022/11/13 11:25:14;;;;;;;;;;;;;;;7.68;99.37;96872.94;5069431;28;19960;-73
2022/11/13 11:27:43;;;;;;;;;;;;;;;7.83;99.76;96886.75;5061767;28;19958;-73
2022/11/13 11:30:18;;;;;;;;;;;;;;;7.88;96.13;96868.69;5061316;28;19954;-73
2022/11/13 11:32:52;;;;;;;;;;;;;;;7.89;96.41;96859.84;5066556;28;20334;-73
2022/11/13 11:35:20;;;;;;;;;;;;;;;7.91;98.34;96876.13;5065105;28;20354;-73
2022/11/13 11:37:50;;;;;;;;;;;;;;;7.92;96.96;96859.47;5058526;28;19955;-73
2022/11/13 11:40:34;;;;;;;;;;;;;;;7.98;96.82;96863.16;5061165;28;19954;-74
2022/11/13 11:43:06;;;;;;;;;;;;;;;8.04;97.78;96849.31;5065370;28;19952;-73
2022/11/13 11:45:38;;;;;;;;;;;;;;;8.12;96.37;96840.50;5067707;28;19961;-73
2022/11/13 11:48:08;;;;;;;;;;;;;;;8.21;98.47;96844.59;5056784;28;20335;-73
2022/11/13 11:50:34;;;;;;;;;;;;;;;8.25;97.89;96839.78;5064873;28;19958;-73
2022/11/13 11:53:09;;;;;;;;;;;;;;;8.32;96.87;96840.63;5068134;28;19974;-73
2022/11/13 11:55:47;;;;;;;;;;;;;;;8.44;97.57;96831.28;5045845;28;20328;-73
2022/11/13 11:58:36;;;;;;;;;;;;;;;8.56;90.97;96794.09;5064500;28;19961;-73
2022/11/13 12:01:18;;;;;;;;;;;;;;;8.70;88.74;96773.03;5063695;28;19957;-71
2022/11/13 12:03:55;;;;;;;;;;;;;;;8.81;86.91;96763.00;5063261;28;19951;-71
2022/11/13 12:06:28;;;;;;;;;;;;;;;8.88;87.68;96764.63;5060206;28;19951;-73
2022/11/13 12:08:58;;;;;;;;;;;;;;;8.93;86.37;96753.56;5049459;28;19986;-72
2022/11/13 12:11:24;;;;;;;;;;;;;;;9.00;82.83;96733.44;5063746;28;19965;-72
2022/11/13 12:13:50;;;;;;;;;;;;;;;9.09;82.33;96729.63;5066439;28;19950;-72
2022/11/13 12:16:19;;;;;;;;;;;;;;;9.18;83.29;96730.25;5066204;28;20002;-72
2022/11/13 12:19:05;;;;;;;;;;;;;;;9.22;83.71;96730.63;5060578;28;19948;-72
2022/11/13 12:21:52;;;;;;;;;;;;;;;9.26;84.83;96729.22;5061267;28;19957;-72
2022/11/13 12:24:37;;;;;;;;;;;;;;;9.36;80.06;96687.72;5063578;28;19958;-72
2022/11/13 12:27:21;;;;;;;;;;;;;;;9.42;79.35;96676.44;5060742;28;19961;-72
2022/11/13 12:29:47;;;;;;;;;;;;;;;9.41;82.11;96690.56;5062905;28;19953;-72
2022/11/13 12:32:22;;;;;;;;;;;;;;;9.40;81.98;96691.56;5062688;28;19963;-72
2022/11/13 12:34:51;;;;;;;;;;;;;;;9.41;80.46;96674.84;5061731;28;19958;-72
2022/11/13 12:37:21;;;;;;;;;;;;;;;9.47;81.66;96692.38;5072178;28;19965;-72
2022/11/13 12:39:57;;;;;;;;;;;;;;;9.56;81.22;96682.47;5068101;28;19963;-72
2022/11/13 12:42:43;;;;;;;;;;;;;;;9.65;74.76;96607.91;5064290;28;20323;-72
2022/11/13 12:45:41;;;;;;;;;;;;;;;9.74;77.85;96643.34;5065065;28;19962;-72
2022/11/13 12:48:13;;;;;;;;;;;;;;;9.81;79.59;96659.03;5000776;28;19949;-72
2022/11/13 12:50:39;;;;;;;;;;;;;;;9.84;78.75;96650.75;5064008;28;19960;-72
2022/11/13 12:53:09;;;;;;;;;;;;;;;9.89;77.41;96637.00;5066021;28;20338;-72